Rockwell City, Iowa
Current Conditions -  °F | °C
As of 7:35 PM on Monday 24 Nov 2014 (Local Time) from KFOD Reporting Station
Overcast Overcast  
Wind Chill: 10°   Ceiling: 2400
Heat Index: 21°   Visibility: 5mi
Dew Point: 12°   Wind: 10mph
Humidity: 68%   Direction: 320°NW
Pressure: 29.87"   Gusts: 28mph
Location:  42.4°N, 94.63°W
Report Text: KFOD 250135Z AUTO 32009G24KT 5SM BKN024 BKN030 OVC080 M06/M11 A2987 RMK AO1
Loading
Personal Weather Stations






























Interactive Weather Map New forecast layout! Learn more

10-Day Weather Forecast

Advertisements
Track Severe Weather on mobile